sensor_id;sensor_type;location;lat;lon;timestamp;pressure;altitude;pressure_sealevel;temperature;humidity
25526;BME280;13424;48.424;11.258;2022-12-10T00:01:18;94267.25;;;4.75;75.25
25526;BME280;13424;48.424;11.258;2022-12-10T00:03:44;94271.78;;;4.91;74.40
25526;BME280;13424;48.424;11.258;2022-12-10T00:06:19;94284.06;;;4.86;75.64
25526;BME280;13424;48.424;11.258;2022-12-10T00:08:45;94284.25;;;4.96;74.92
25526;BME280;13424;48.424;11.258;2022-12-10T00:11:13;94291.91;;;4.81;75.16
25526;BME280;13424;48.424;11.258;2022-12-10T00:13:39;94283.03;;;4.58;75.69
25526;BME280;13424;48.424;11.258;2022-12-10T00:16:09;94278.94;;;4.79;75.43
25526;BME280;13424;48.424;11.258;2022-12-10T00:18:36;94279.94;;;4.90;74.72
25526;BME280;13424;48.424;11.258;2022-12-10T00:25:09;94282.75;;;5.00;74.24
25526;BME280;13424;48.424;11.258;2022-12-10T00:27:35;94276.75;;;5.04;73.59
25526;BME280;13424;48.424;11.258;2022-12-10T00:30:00;94278.38;;;4.65;75.35
25526;BME280;13424;48.424;11.258;2022-12-10T00:32:26;94287.94;;;4.66;75.90
25526;BME280;13424;48.424;11.258;2022-12-10T00:34:52;94296.84;;;4.77;75.37
25526;BME280;13424;48.424;11.258;2022-12-10T00:37:18;94280.75;;;4.90;74.88
25526;BME280;13424;48.424;11.258;2022-12-10T00:39:43;94283.16;;;4.92;74.51
25526;BME280;13424;48.424;11.258;2022-12-10T00:42:11;94281.63;;;4.96;74.79
25526;BME280;13424;48.424;11.258;2022-12-10T00:44:37;94283.97;;;5.09;74.05
25526;BME280;13424;48.424;11.258;2022-12-10T00:47:03;94289.09;;;4.99;74.04
25526;BME280;13424;48.424;11.258;2022-12-10T00:49:29;94288.38;;;4.75;74.81
25526;BME280;13424;48.424;11.258;2022-12-10T00:51:54;94294.44;;;4.35;76.55
25526;BME280;13424;48.424;11.258;2022-12-10T00:54:20;94300.66;;;4.69;76.63
25526;BME280;13424;48.424;11.258;2022-12-10T00:56:46;94303.44;;;4.74;76.50
25526;BME280;13424;48.424;11.258;2022-12-10T00:59:14;94310.75;;;4.72;76.47
25526;BME280;13424;48.424;11.258;2022-12-10T01:01:41;94302.84;;;3.97;77.69
25526;BME280;13424;48.424;11.258;2022-12-10T01:04:12;94306.03;;;4.23;78.08
25526;BME280;13424;48.424;11.258;2022-12-10T01:06:46;94309.31;;;4.53;76.79
25526;BME280;13424;48.424;11.258;2022-12-10T01:09:19;94308.91;;;4.85;76.06
25526;BME280;13424;48.424;11.258;2022-12-10T01:11:47;94299.94;;;4.86;75.89
25526;BME280;13424;48.424;11.258;2022-12-10T01:14:19;94307.09;;;5.02;74.65
25526;BME280;13424;48.424;11.258;2022-12-10T01:16:48;94307.00;;;4.97;75.07
25526;BME280;13424;48.424;11.258;2022-12-10T01:19:16;94311.53;;;5.13;74.09
25526;BME280;13424;48.424;11.258;2022-12-10T01:21:41;94309.75;;;5.02;74.86
25526;BME280;13424;48.424;11.258;2022-12-10T01:24:07;94309.25;;;5.05;74.57
25526;BME280;13424;48.424;11.258;2022-12-10T01:26:34;94310.09;;;4.65;75.71
25526;BME280;13424;48.424;11.258;2022-12-10T01:29:01;94307.22;;;5.07;74.72
25526;BME280;13424;48.424;11.258;2022-12-10T01:31:31;94307.75;;;4.81;75.72
25526;BME280;13424;48.424;11.258;2022-12-10T01:33:58;94315.53;;;4.59;76.26
25526;BME280;13424;48.424;11.258;2022-12-10T01:36:35;94320.81;;;4.99;75.75
25526;BME280;13424;48.424;11.258;2022-12-10T01:39:05;94311.84;;;5.00;74.43
25526;BME280;13424;48.424;11.258;2022-12-10T01:41:38;94313.59;;;4.31;78.15
25526;BME280;13424;48.424;11.258;2022-12-10T01:46:42;94308.91;;;4.85;76.17
25526;BME280;13424;48.424;11.258;2022-12-10T01:49:17;94298.41;;;4.61;76.27
25526;BME280;13424;48.424;11.258;2022-12-10T01:55:51;94303.44;;;4.74;75.03
25526;BME280;13424;48.424;11.258;2022-12-10T01:58:18;94302.63;;;4.74;75.55
25526;BME280;13424;48.424;11.258;2022-12-10T02:11:00;94311.84;;;4.88;74.96
25526;BME280;13424;48.424;11.258;2022-12-10T02:20:15;94325.34;;;4.75;75.17
25526;BME280;13424;48.424;11.258;2022-12-10T02:22:54;94323.44;;;4.47;76.67
25526;BME280;13424;48.424;11.258;2022-12-10T02:25:29;94317.69;;;4.50;76.56
25526;BME280;13424;48.424;11.258;2022-12-10T02:28:24;94321.75;;;4.81;76.13
25526;BME280;13424;48.424;11.258;2022-12-10T02:30:53;94316.66;;;4.63;76.60
25526;BME280;13424;48.424;11.258;2022-12-10T02:33:20;94324.13;;;4.94;75.64
25526;BME280;13424;48.424;11.258;2022-12-10T02:39:54;94313.00;;;4.40;76.45
25526;BME280;13424;48.424;11.258;2022-12-10T02:42:22;94317.31;;;4.70;76.43
25526;BME280;13424;48.424;11.258;2022-12-10T02:44:50;94310.50;;;4.86;75.24
25526;BME280;13424;48.424;11.258;2022-12-10T02:47:21;94314.44;;;4.71;76.31
25526;BME280;13424;48.424;11.258;2022-12-10T02:49:50;94302.06;;;4.60;76.32
25526;BME280;13424;48.424;11.258;2022-12-10T02:52:20;94287.94;;;4.66;76.50
25526;BME280;13424;48.424;11.258;2022-12-10T02:54:50;94297.03;;;4.99;75.72
25526;BME280;13424;48.424;11.258;2022-12-10T03:00:22;94290.16;;;4.86;75.52
25526;BME280;13424;48.424;11.258;2022-12-10T03:05:33;94282.00;;;4.88;75.40
25526;BME280;13424;48.424;11.258;2022-12-10T03:08:24;94288.22;;;4.82;75.15
25526;BME280;13424;48.424;11.258;2022-12-10T03:13:32;94278.25;;;4.72;74.63
25526;BME280;13424;48.424;11.258;2022-12-10T03:16:00;94278.31;;;4.89;74.54
25526;BME280;13424;48.424;11.258;2022-12-10T03:18:27;94275.44;;;4.50;75.87
25526;BME280;13424;48.424;11.258;2022-12-10T03:20:59;94283.25;;;4.57;75.40
25526;BME280;13424;48.424;11.258;2022-12-10T03:23:27;94285.13;;;4.44;75.10
25526;BME280;13424;48.424;11.258;2022-12-10T03:25:54;94288.97;;;4.65;74.91
25526;BME280;13424;48.424;11.258;2022-12-10T03:28:20;94292.84;;;4.74;75.01
25526;BME280;13424;48.424;11.258;2022-12-10T03:30:47;94291.72;;;4.70;75.95
25526;BME280;13424;48.424;11.258;2022-12-10T03:33:13;94288.88;;;4.60;75.28
25526;BME280;13424;48.424;11.258;2022-12-10T03:35:48;94291.88;;;4.52;75.74
25526;BME280;13424;48.424;11.258;2022-12-10T03:38:15;94300.19;;;4.72;75.17
25526;BME280;13424;48.424;11.258;2022-12-10T03:40:41;94306.88;;;4.63;75.59
25526;BME280;13424;48.424;11.258;2022-12-10T03:43:07;94306.06;;;3.99;77.46
25526;BME280;13424;48.424;11.258;2022-12-10T03:45:33;94307.31;;;4.20;77.21
25526;BME280;13424;48.424;11.258;2022-12-10T03:47:58;94305.69;;;4.83;74.85
25526;BME280;13424;48.424;11.258;2022-12-10T03:50:24;94292.38;;;4.78;75.34
25526;BME280;13424;48.424;11.258;2022-12-10T03:52:50;94287.94;;;4.95;74.69
25526;BME280;13424;48.424;11.258;2022-12-10T03:55:19;94287.28;;;4.47;75.21
25526;BME280;13424;48.424;11.258;2022-12-10T03:57:45;94283.22;;;4.68;74.92
25526;BME280;13424;48.424;11.258;2022-12-10T04:00:11;94282.13;;;4.41;75.58
25526;BME280;13424;48.424;11.258;2022-12-10T04:02:41;94286.53;;;4.24;75.93
25526;BME280;13424;48.424;11.258;2022-12-10T04:05:07;94281.56;;;4.39;75.88
25526;BME280;13424;48.424;11.258;2022-12-10T04:07:34;94291.44;;;4.32;76.51
25526;BME280;13424;48.424;11.258;2022-12-10T04:10:00;94303.41;;;3.99;77.25
25526;BME280;13424;48.424;11.258;2022-12-10T04:12:26;94300.94;;;4.56;75.60
25526;BME280;13424;48.424;11.258;2022-12-10T04:14:51;94297.47;;;4.67;75.30
25526;BME280;13424;48.424;11.258;2022-12-10T04:17:36;94311.00;;;4.71;74.64
25526;BME280;13424;48.424;11.258;2022-12-10T04:20:02;94313.38;;;4.44;75.39
25526;BME280;13424;48.424;11.258;2022-12-10T04:22:27;94304.16;;;4.58;76.15
25526;BME280;13424;48.424;11.258;2022-12-10T04:25:12;94303.88;;;4.71;74.75
25526;BME280;13424;48.424;11.258;2022-12-10T04:27:57;94302.94;;;4.78;74.53
25526;BME280;13424;48.424;11.258;2022-12-10T04:30:23;94305.59;;;4.78;74.61
25526;BME280;13424;48.424;11.258;2022-12-10T04:32:49;94298.41;;;4.61;75.77
25526;BME280;13424;48.424;11.258;2022-12-10T04:35:14;94302.56;;;4.34;76.23
25526;BME280;13424;48.424;11.258;2022-12-10T04:37:40;94301.00;;;4.73;75.33
25526;BME280;13424;48.424;11.258;2022-12-10T04:40:07;94296.78;;;4.60;75.07
25526;BME280;13424;48.424;11.258;2022-12-10T04:42:33;94289.91;;;4.59;75.16
25526;BME280;13424;48.424;11.258;2022-12-10T04:44:59;94291.72;;;4.70;74.69
25526;BME280;13424;48.424;11.258;2022-12-10T04:47:24;94302.03;;;4.72;74.99
25526;BME280;13424;48.424;11.258;2022-12-10T04:49:51;94296.13;;;4.53;76.23
25526;BME280;13424;48.424;11.258;2022-12-10T04:52:17;94304.34;;;4.68;75.96
25526;BME280;13424;48.424;11.258;2022-12-10T04:54:43;94297.00;;;4.70;74.85
25526;BME280;13424;48.424;11.258;2022-12-10T04:57:09;94298.94;;;4.75;75.16
25526;BME280;13424;48.424;11.258;2022-12-10T04:59:36;94305.22;;;4.45;75.66
25526;BME280;13424;48.424;11.258;2022-12-10T05:02:33;94303.19;;;4.76;73.87
25526;BME280;13424;48.424;11.258;2022-12-10T05:04:59;94312.44;;;4.90;74.02
25526;BME280;13424;48.424;11.258;2022-12-10T05:07:25;94303.25;;;4.81;74.28
25526;BME280;13424;48.424;11.258;2022-12-10T05:09:50;94303.84;;;4.83;73.76
25526;BME280;13424;48.424;11.258;2022-12-10T05:12:16;94303.44;;;4.74;74.27
25526;BME280;13424;48.424;11.258;2022-12-10T05:14:42;94308.91;;;4.85;74.00
25526;BME280;13424;48.424;11.258;2022-12-10T05:17:17;94300.88;;;4.80;74.63
25526;BME280;13424;48.424;11.258;2022-12-10T05:19:43;94308.53;;;4.41;75.45
25526;BME280;13424;48.424;11.258;2022-12-10T05:22:08;94314.91;;;4.68;74.43
25526;BME280;13424;48.424;11.258;2022-12-10T05:24:53;94314.56;;;4.65;75.10
25526;BME280;13424;48.424;11.258;2022-12-10T05:27:18;94314.75;;;4.35;75.08
25526;BME280;13424;48.424;11.258;2022-12-10T05:29:44;94305.13;;;4.29;76.12
25526;BME280;13424;48.424;11.258;2022-12-10T05:32:10;94307.59;;;4.47;75.64
25526;BME280;13424;48.424;11.258;2022-12-10T05:38:42;94308.03;;;4.56;76.43
25526;BME280;13424;48.424;11.258;2022-12-10T05:41:21;94311.22;;;4.69;74.91
25526;BME280;13424;48.424;11.258;2022-12-10T05:43:47;94305.78;;;4.47;76.27
25526;BME280;13424;48.424;11.258;2022-12-10T05:46:19;94302.63;;;4.74;75.18
25526;BME280;13424;48.424;11.258;2022-12-10T05:48:46;94306.44;;;4.66;75.27
25526;BME280;13424;48.424;11.258;2022-12-10T05:51:15;94301.59;;;4.63;74.81
25526;BME280;13424;48.424;11.258;2022-12-10T05:53:47;94300.66;;;4.69;74.94
25526;BME280;13424;48.424;11.258;2022-12-10T05:56:16;94314.34;;;4.66;74.80
25526;BME280;13424;48.424;11.258;2022-12-10T05:58:45;94306.50;;;4.19;76.95
25526;BME280;13424;48.424;11.258;2022-12-10T06:01:15;94312.13;;;4.23;76.72
25526;BME280;13424;48.424;11.258;2022-12-10T06:03:42;94311.53;;;4.09;77.37
25526;BME280;13424;48.424;11.258;2022-12-10T06:06:08;94300.09;;;4.04;77.36
25526;BME280;13424;48.424;11.258;2022-12-10T06:08:34;94306.69;;;4.53;76.10
25526;BME280;13424;48.424;11.258;2022-12-10T06:11:05;94312.00;;;4.30;77.05
25526;BME280;13424;48.424;11.258;2022-12-10T06:13:31;94312.25;;;4.28;76.49
25526;BME280;13424;48.424;11.258;2022-12-10T06:15:57;94318.66;;;3.74;78.29
25526;BME280;13424;48.424;11.258;2022-12-10T06:18:23;94315.22;;;3.73;78.91
25526;BME280;13424;48.424;11.258;2022-12-10T06:20:49;94315.09;;;4.38;76.01
25526;BME280;13424;48.424;11.258;2022-12-10T06:23:15;94320.06;;;4.11;76.89
25526;BME280;13424;48.424;11.258;2022-12-10T06:25:41;94313.63;;;3.96;77.90
25526;BME280;13424;48.424;11.258;2022-12-10T06:28:07;94322.16;;;4.49;75.52
25526;BME280;13424;48.424;11.258;2022-12-10T06:30:34;94312.09;;;4.58;75.65
25526;BME280;13424;48.424;11.258;2022-12-10T06:33:00;94319.53;;;4.49;75.02
25526;BME280;13424;48.424;11.258;2022-12-10T06:35:26;94320.25;;;4.45;75.25
25526;BME280;13424;48.424;11.258;2022-12-10T06:37:52;94330.59;;;4.23;75.92
25526;BME280;13424;48.424;11.258;2022-12-10T06:40:18;94320.69;;;4.42;75.44
25526;BME280;13424;48.424;11.258;2022-12-10T06:42:44;94325.72;;;4.67;74.84
25526;BME280;13424;48.424;11.258;2022-12-10T06:45:10;94327.16;;;4.23;76.59
25526;BME280;13424;48.424;11.258;2022-12-10T06:47:36;94337.00;;;4.51;75.33
25526;BME280;13424;48.424;11.258;2022-12-10T06:50:03;94339.72;;;4.56;75.18
25526;BME280;13424;48.424;11.258;2022-12-10T06:56:01;94346.28;;;4.41;75.02
25526;BME280;13424;48.424;11.258;2022-12-10T06:58:29;94349.72;;;4.54;74.79
25526;BME280;13424;48.424;11.258;2022-12-10T07:01:26;94346.13;;;4.83;74.29
25526;BME280;13424;48.424;11.258;2022-12-10T07:03:53;94351.28;;;4.78;74.42
25526;BME280;13424;48.424;11.258;2022-12-10T07:06:20;94348.88;;;4.76;74.07
25526;BME280;13424;48.424;11.258;2022-12-10T07:08:48;94357.78;;;4.99;73.40
25526;BME280;13424;48.424;11.258;2022-12-10T07:11:22;94355.78;;;4.78;74.19
25526;BME280;13424;48.424;11.258;2022-12-10T07:13:48;94350.63;;;4.71;74.84
25526;BME280;13424;48.424;11.258;2022-12-10T07:16:17;94358.31;;;4.72;73.90
25526;BME280;13424;48.424;11.258;2022-12-10T07:18:44;94353.06;;;4.49;75.29
25526;BME280;13424;48.424;11.258;2022-12-10T07:21:29;94355.44;;;4.74;74.58
25526;BME280;13424;48.424;11.258;2022-12-10T07:23:57;94351.63;;;4.82;74.32
25526;BME280;13424;48.424;11.258;2022-12-10T07:26:25;94355.34;;;5.09;72.87
25526;BME280;13424;48.424;11.258;2022-12-10T07:28:50;94364.56;;;4.95;73.34
25526;BME280;13424;48.424;11.258;2022-12-10T07:31:18;94361.38;;;4.93;73.32
25526;BME280;13424;48.424;11.258;2022-12-10T07:33:45;94368.06;;;5.12;73.91
25526;BME280;13424;48.424;11.258;2022-12-10T07:36:12;94356.56;;;4.90;74.65
25526;BME280;13424;48.424;11.258;2022-12-10T07:38:38;94368.31;;;4.70;74.81
25526;BME280;13424;48.424;11.258;2022-12-10T07:41:09;94361.81;;;4.38;76.59
25526;BME280;13424;48.424;11.258;2022-12-10T07:43:37;94355.78;;;4.78;75.46
25526;BME280;13424;48.424;11.258;2022-12-10T07:46:16;94371.09;;;5.04;73.47
25526;BME280;13424;48.424;11.258;2022-12-10T07:48:44;94378.34;;;4.97;74.13
25526;BME280;13424;48.424;11.258;2022-12-10T07:51:10;94378.03;;;4.82;73.62
25526;BME280;13424;48.424;11.258;2022-12-10T07:53:36;94381.66;;;5.04;73.68
25526;BME280;13424;48.424;11.258;2022-12-10T07:56:04;94381.00;;;4.97;73.71
25526;BME280;13424;48.424;11.258;2022-12-10T07:58:33;94383.78;;;4.79;74.33
25526;BME280;13424;48.424;11.258;2022-12-10T08:05:05;94369.69;;;5.13;73.23
25526;BME280;13424;48.424;11.258;2022-12-10T08:07:32;94366.41;;;4.31;75.87
25526;BME280;13424;48.424;11.258;2022-12-10T08:09:58;94370.38;;;4.68;74.99
25526;BME280;13424;48.424;11.258;2022-12-10T08:12:24;94361.47;;;4.98;74.04
25526;BME280;13424;48.424;11.258;2022-12-10T08:14:50;94365.47;;;4.60;75.85
25526;BME280;13424;48.424;11.258;2022-12-10T08:17:15;94358.97;;;4.80;74.82
25526;BME280;13424;48.424;11.258;2022-12-10T08:19:41;94360.84;;;4.67;75.66
25526;BME280;13424;48.424;11.258;2022-12-10T08:22:07;94357.44;;;4.32;76.17
25526;BME280;13424;48.424;11.258;2022-12-10T08:24:33;94352.03;;;4.38;76.85
25526;BME280;13424;48.424;11.258;2022-12-10T08:30:30;94361.53;;;4.74;75.15
25526;BME280;13424;48.424;11.258;2022-12-10T08:32:56;94364.75;;;4.76;74.54
25526;BME280;13424;48.424;11.258;2022-12-10T08:35:22;94381.16;;;4.90;74.73
25526;BME280;13424;48.424;11.258;2022-12-10T08:37:47;94387.34;;;4.72;75.55
25526;BME280;13424;48.424;11.258;2022-12-10T08:40:13;94379.59;;;4.07;76.59
25526;BME280;13424;48.424;11.258;2022-12-10T08:42:45;94381.09;;;4.27;77.30
25526;BME280;13424;48.424;11.258;2022-12-10T08:45:11;94376.91;;;4.78;75.41
25526;BME280;13424;48.424;11.258;2022-12-10T08:47:37;94376.25;;;4.47;74.42
25526;BME280;13424;48.424;11.258;2022-12-10T08:50:03;94381.47;;;4.94;73.87
25526;BME280;13424;48.424;11.258;2022-12-10T08:52:29;94374.16;;;4.72;74.12
25526;BME280;13424;48.424;11.258;2022-12-10T08:54:55;94377.16;;;4.76;74.36
25526;BME280;13424;48.424;11.258;2022-12-10T08:57:21;94384.94;;;4.83;73.66
25526;BME280;13424;48.424;11.258;2022-12-10T08:59:47;94383.25;;;4.53;74.78
25526;BME280;13424;48.424;11.258;2022-12-10T09:02:13;94389.81;;;4.39;74.94
25526;BME280;13424;48.424;11.258;2022-12-10T09:04:39;94390.84;;;4.61;74.63
25526;BME280;13424;48.424;11.258;2022-12-10T09:07:07;94386.81;;;4.59;74.42
25526;BME280;13424;48.424;11.258;2022-12-10T09:09:32;94385.88;;;4.76;74.32
25526;BME280;13424;48.424;11.258;2022-12-10T09:11:58;94379.13;;;5.09;73.36
25526;BME280;13424;48.424;11.258;2022-12-10T09:14:25;94377.84;;;5.12;73.21
25526;BME280;13424;48.424;11.258;2022-12-10T09:16:51;94383.00;;;5.18;74.15
25526;BME280;13424;48.424;11.258;2022-12-10T09:19:17;94378.69;;;4.13;76.23
25526;BME280;13424;48.424;11.258;2022-12-10T09:21:43;94384.63;;;4.56;74.86
25526;BME280;13424;48.424;11.258;2022-12-10T09:24:09;94384.72;;;4.02;77.02
25526;BME280;13424;48.424;11.258;2022-12-10T09:26:34;94395.97;;;4.80;75.34
25526;BME280;13424;48.424;11.258;2022-12-10T09:29:00;94390.56;;;4.86;74.91
25526;BME280;13424;48.424;11.258;2022-12-10T09:31:26;94400.06;;;4.99;73.88
25526;BME280;13424;48.424;11.258;2022-12-10T09:33:53;94395.19;;;5.19;73.00
25526;BME280;13424;48.424;11.258;2022-12-10T09:36:20;94395.41;;;4.78;74.48
25526;BME280;13424;48.424;11.258;2022-12-10T09:38:47;94392.16;;;4.99;72.90
25526;BME280;13424;48.424;11.258;2022-12-10T09:47:14;94397.03;;;4.55;74.45
25526;BME280;13424;48.424;11.258;2022-12-10T09:50:12;94397.69;;;4.86;73.72
25526;BME280;13424;48.424;11.258;2022-12-10T09:52:43;94391.91;;;4.89;74.33
25526;BME280;13424;48.424;11.258;2022-12-10T09:55:36;94387.16;;;5.14;73.17
25526;BME280;13424;48.424;11.258;2022-12-10T09:58:04;94386.59;;;4.37;75.17
25526;BME280;13424;48.424;11.258;2022-12-10T10:00:40;94380.22;;;4.85;72.64
25526;BME280;13424;48.424;11.258;2022-12-10T10:03:12;94379.38;;;4.44;74.89
25526;BME280;13424;48.424;11.258;2022-12-10T10:05:57;94375.56;;;4.40;75.42
25526;BME280;13424;48.424;11.258;2022-12-10T10:15:34;94386.69;;;4.77;73.13
25526;BME280;13424;48.424;11.258;2022-12-10T10:20:56;94380.25;;;4.73;73.63
25526;BME280;13424;48.424;11.258;2022-12-10T10:23:22;94383.88;;;4.95;73.79
25526;BME280;13424;48.424;11.258;2022-12-10T10:25:47;94385.00;;;4.59;73.97
25526;BME280;13424;48.424;11.258;2022-12-10T10:28:19;94380.41;;;4.43;74.62
25526;BME280;13424;48.424;11.258;2022-12-10T10:30:45;94378.72;;;4.89;73.78
25526;BME280;13424;48.424;11.258;2022-12-10T10:33:13;94387.06;;;5.09;73.19
25526;BME280;13424;48.424;11.258;2022-12-10T10:35:49;94384.03;;;4.77;73.99
25526;BME280;13424;48.424;11.258;2022-12-10T10:38:24;94390.47;;;4.69;73.98
25526;BME280;13424;48.424;11.258;2022-12-10T10:40:56;94400.06;;;4.99;74.30
25526;BME280;13424;48.424;11.258;2022-12-10T10:43:31;94395.66;;;5.16;72.98
25526;BME280;13424;48.424;11.258;2022-12-10T10:46:04;94385.41;;;4.80;72.96
25526;BME280;13424;48.424;11.258;2022-12-10T10:48:32;94395.59;;;4.88;73.29
25526;BME280;13424;48.424;11.258;2022-12-10T10:53:51;94379.44;;;4.72;72.73
25526;BME280;13424;48.424;11.258;2022-12-10T10:59:06;94394.28;;;5.42;71.94
25526;BME280;13424;48.424;11.258;2022-12-10T11:01:53;94388.34;;;4.95;73.38
25526;BME280;13424;48.424;11.258;2022-12-10T11:07:02;94393.16;;;5.67;70.47
25526;BME280;13424;48.424;11.258;2022-12-10T11:09:31;94392.41;;;4.86;73.58
25526;BME280;13424;48.424;11.258;2022-12-10T11:12:07;94389.31;;;4.65;73.80
25526;BME280;13424;48.424;11.258;2022-12-10T11:14:46;94381.56;;;4.99;73.49
25526;BME280;13424;48.424;11.258;2022-12-10T11:20:16;94387.97;;;5.43;73.50
25526;BME280;13424;48.424;11.258;2022-12-10T11:23:07;94384.31;;;4.29;74.74
25526;BME280;13424;48.424;11.258;2022-12-10T11:28:42;94381.16;;;4.79;74.57
25526;BME280;13424;48.424;11.258;2022-12-10T11:34:59;94382.78;;;4.68;75.21
25526;BME280;13424;48.424;11.258;2022-12-10T11:38:05;94378.25;;;4.92;74.52
25526;BME280;13424;48.424;11.258;2022-12-10T11:40:57;94385.41;;;5.20;74.16
25526;BME280;13424;48.424;11.258;2022-12-10T11:46:33;94376.03;;;4.37;75.95
25526;BME280;13424;48.424;11.258;2022-12-10T11:55:42;94373.19;;;5.30;73.51
25526;BME280;13424;48.424;11.258;2022-12-10T12:05:24;94373.22;;;4.90;74.83
25526;BME280;13424;48.424;11.258;2022-12-10T12:08:23;94375.97;;;5.24;74.34
25526;BME280;13424;48.424;11.258;2022-12-10T12:14:22;94397.84;;;5.48;73.21
25526;BME280;13424;48.424;11.258;2022-12-10T12:17:23;94388.97;;;4.85;74.00
25526;BME280;13424;48.424;11.258;2022-12-10T12:20:00;94391.25;;;4.82;74.71
25526;BME280;13424;48.424;11.258;2022-12-10T12:22:37;94398.66;;;5.08;74.40
25526;BME280;13424;48.424;11.258;2022-12-10T12:25:46;94392.47;;;5.14;74.22
25526;BME280;13424;48.424;11.258;2022-12-10T12:28:20;94391.31;;;5.10;73.93
25526;BME280;13424;48.424;11.258;2022-12-10T12:30:48;94389.75;;;4.86;75.09
25526;BME280;13424;48.424;11.258;2022-12-10T12:33:27;94392.72;;;5.01;74.95
25526;BME280;13424;48.424;11.258;2022-12-10T12:36:03;94394.72;;;5.22;74.94
25526;BME280;13424;48.424;11.258;2022-12-10T12:39:03;94397.19;;;5.41;73.77
25526;BME280;13424;48.424;11.258;2022-12-10T12:42:16;94403.03;;;5.14;74.71
25526;BME280;13424;48.424;11.258;2022-12-10T12:45:38;94403.84;;;5.03;74.80
25526;BME280;13424;48.424;11.258;2022-12-10T12:48:40;94409.81;;;5.10;74.38
25526;BME280;13424;48.424;11.258;2022-12-10T12:51:56;94410.16;;;5.02;74.70
25526;BME280;13424;48.424;11.258;2022-12-10T12:54:24;94426.97;;;4.72;74.96
25526;BME280;13424;48.424;11.258;2022-12-10T12:57:22;94432.72;;;4.93;74.78
25526;BME280;13424;48.424;11.258;2022-12-10T13:00:12;94422.69;;;5.07;74.09
25526;BME280;13424;48.424;11.258;2022-12-10T13:05:51;94432.03;;;4.86;74.80
25526;BME280;13424;48.424;11.258;2022-12-10T13:13:33;94434.00;;;4.55;76.38
25526;BME280;13424;48.424;11.258;2022-12-10T13:22:11;94435.00;;;5.01;74.49
25526;BME280;13424;48.424;11.258;2022-12-10T13:37:35;94454.78;;;4.87;75.38
25526;BME280;13424;48.424;11.258;2022-12-10T13:42:37;94483.72;;;4.82;75.16
25526;BME280;13424;48.424;11.258;2022-12-10T13:48:15;94482.56;;;4.54;76.50
25526;BME280;13424;48.424;11.258;2022-12-10T13:57:16;94492.34;;;4.00;76.66
25526;BME280;13424;48.424;11.258;2022-12-10T14:00:22;94501.25;;;4.29;76.27
25526;BME280;13424;48.424;11.258;2022-12-10T14:06:17;94502.78;;;4.60;76.22
25526;BME280;13424;48.424;11.258;2022-12-10T14:09:15;94506.56;;;3.69;78.15
25526;BME280;13424;48.424;11.258;2022-12-10T14:12:10;94507.81;;;4.50;75.67
25526;BME280;13424;48.424;11.258;2022-12-10T14:15:01;94509.00;;;4.78;75.17
25526;BME280;13424;48.424;11.258;2022-12-10T14:17:34;94517.16;;;3.51;78.28
25526;BME280;13424;48.424;11.258;2022-12-10T14:20:04;94516.63;;;4.20;76.68
25526;BME280;13424;48.424;11.258;2022-12-10T14:22:49;94518.19;;;4.10;77.06
25526;BME280;13424;48.424;11.258;2022-12-10T14:25:20;94515.97;;;4.37;76.21
25526;BME280;13424;48.424;11.258;2022-12-10T14:27:52;94525.59;;;4.01;77.38
25526;BME280;13424;48.424;11.258;2022-12-10T14:30:20;94527.03;;;4.69;75.35
25526;BME280;13424;48.424;11.258;2022-12-10T14:32:47;94524.16;;;4.59;75.79
25526;BME280;13424;48.424;11.258;2022-12-10T14:35:21;94531.41;;;4.75;75.30
25526;BME280;13424;48.424;11.258;2022-12-10T14:37:48;94529.72;;;4.39;76.18
25526;BME280;13424;48.424;11.258;2022-12-10T14:40:23;94539.25;;;4.40;75.56
25526;BME280;13424;48.424;11.258;2022-12-10T14:43:11;94540.81;;;4.17;76.46
25526;BME280;13424;48.424;11.258;2022-12-10T14:45:51;94547.34;;;3.85;77.76
25526;BME280;13424;48.424;11.258;2022-12-10T14:48:18;94541.44;;;4.01;77.42
25526;BME280;13424;48.424;11.258;2022-12-10T14:50:45;94549.91;;;3.91;76.87
25526;BME280;13424;48.424;11.258;2022-12-10T14:53:22;94550.13;;;3.90;77.56
25526;BME280;13424;48.424;11.258;2022-12-10T14:55:52;94549.97;;;4.03;77.01
25526;BME280;13424;48.424;11.258;2022-12-10T14:58:27;94550.03;;;4.27;76.10
25526;BME280;13424;48.424;11.258;2022-12-10T15:00:55;94560.94;;;4.00;76.67
25526;BME280;13424;48.424;11.258;2022-12-10T15:03:30;94557.47;;;3.88;76.62
25526;BME280;13424;48.424;11.258;2022-12-10T15:05:59;94555.91;;;4.10;76.37
25526;BME280;13424;48.424;11.258;2022-12-10T15:08:26;94565.28;;;3.95;75.91
25526;BME280;13424;48.424;11.258;2022-12-10T15:10:58;94570.16;;;3.61;77.03
25526;BME280;13424;48.424;11.258;2022-12-10T15:13:39;94567.72;;;3.96;76.30
25526;BME280;13424;48.424;11.258;2022-12-10T15:16:06;94575.31;;;3.86;76.63
25526;BME280;13424;48.424;11.258;2022-12-10T15:18:40;94577.31;;;4.20;75.93
25526;BME280;13424;48.424;11.258;2022-12-10T15:21:19;94582.69;;;4.14;75.87
25526;BME280;13424;48.424;11.258;2022-12-10T15:23:46;94591.25;;;4.28;75.89
25526;BME280;13424;48.424;11.258;2022-12-10T15:26:19;94582.22;;;3.87;76.50
25526;BME280;13424;48.424;11.258;2022-12-10T15:28:48;94589.56;;;3.67;77.30
25526;BME280;13424;48.424;11.258;2022-12-10T15:34:08;94594.69;;;3.25;78.91
25526;BME280;13424;48.424;11.258;2022-12-10T15:39:20;94589.41;;;3.61;77.52
25526;BME280;13424;48.424;11.258;2022-12-10T15:41:55;94590.53;;;4.02;76.87
25526;BME280;13424;48.424;11.258;2022-12-10T15:44:34;94596.16;;;3.76;77.50
25526;BME280;13424;48.424;11.258;2022-12-10T15:47:19;94600.25;;;3.53;76.77
25526;BME280;13424;48.424;11.258;2022-12-10T15:49:48;94605.03;;;3.81;76.79
25526;BME280;13424;48.424;11.258;2022-12-10T15:52:20;94602.25;;;3.76;75.76
25526;BME280;13424;48.424;11.258;2022-12-10T15:55:14;94603.69;;;3.54;75.82
25526;BME280;13424;48.424;11.258;2022-12-10T15:57:42;94605.44;;;3.78;75.16
25526;BME280;13424;48.424;11.258;2022-12-10T16:00:26;94602.63;;;3.43;75.92